DK-0011 weather

Rigshospitalet Helipad
Copenhagen, Capital Region, Denmark

Public forecast

Using degrees Celsius for public forecast. Weather courtesy of forecast.io.

METAR (pilot weather report)

Closest report is Copenhagen Kastrup Airport, 5.6 nm (10.4 km) SSE. Retrieved 2019/07/19 07:20 UTC (0 seconds ago):

EKCH 190720Z AUTO 15009KT 9999 BKN092/// 21/14 Q1012 NOSIG

TAF (pilot weather forecast)

Closest forecast is Copenhagen Kastrup Airport, 5.6 nm (10.4 km) SSE. Retrieved 2019/07/19 06:31 UTC (31 minutes ago):

TAF EKCH 190519Z 1906/2006 14010KT CAVOK PROB40 1912/1918 FEW040CB BECMG 1922/1924 27005KT